Time;durP1;ratioP1;P1;durP2;ratioP2;P2;SDS_P1;SDS_P2;PMS_P1;PMS_P2;Temp;Humidity;BMP_temperature;BMP_pressure;BME280_temperature;BME280_humidity;BME280_pressure;Samples;Min_cycle;Max_cycle;Signal;HPM_P1;HPM_P2
2021/08/04 00:00:45;;;;;;;0.30;0.30;;;12.10;99.90;;;;;;6201121;23;20370;-90
2021/08/04 00:03:43;;;;;;;0.10;0.10;;;12.10;99.90;;;;;;6231679;23;20458;-91
2021/08/04 00:07:19;;;;;;;0.08;0.08;;;12.00;99.90;;;;;;6258745;22;20405;-91
2021/08/04 00:10:31;;;;;;;0.10;0.10;;;11.90;99.90;;;;;;6201461;22;20447;-91
2021/08/04 00:13:46;;;;;;;0.10;0.10;;;11.80;99.90;;;;;;6250840;22;20409;-90
2021/08/04 00:17:00;;;;;;;0.10;0.10;;;11.80;99.90;;;;;;6189480;22;20400;-91
2021/08/04 00:20:21;;;;;;;0.20;0.20;;;11.80;99.90;;;;;;6235691;22;20382;-91
2021/08/04 00:23:39;;;;;;;0.70;0.70;;;11.70;99.90;;;;;;6255736;22;20382;-95
2021/08/04 00:26:50;;;;;;;0.10;0.10;;;11.80;99.90;;;;;;6258249;23;20480;-90
2021/08/04 00:30:19;;;;;;;0.40;0.40;;;11.70;99.90;;;;;;6216034;22;20390;-90
2021/08/04 00:33:09;;;;;;;0.10;0.10;;;11.80;99.90;;;;;;6246354;23;20385;-96
2021/08/04 00:36:14;;;;;;;0.10;0.10;;;11.70;99.90;;;;;;6234730;22;20390;-91
2021/08/04 00:38:58;;;;;;;0.10;0.10;;;11.70;99.90;;;;;;6261196;23;20897;-96
2021/08/04 00:42:04;;;;;;;1.97;0.63;;;11.70;99.90;;;;;;6263180;22;20372;-92
2021/08/04 00:45:01;;;;;;;0.60;0.60;;;11.80;99.90;;;;;;6215100;22;20397;-91
2021/08/04 00:48:26;;;;;;;2.33;0.52;;;11.80;99.90;;;;;;6238390;23;20423;-91
2021/08/04 00:51:28;;;;;;;0.47;0.47;;;11.70;99.90;;;;;;6253803;22;20378;-91
2021/08/04 00:54:35;;;;;;;0.28;0.28;;;11.80;99.90;;;;;;6255278;22;20416;-91
2021/08/04 00:57:59;;;;;;;0.20;0.20;;;11.80;99.90;;;;;;6254873;22;20388;-94
2021/08/04 01:01:14;;;;;;;0.30;0.30;;;11.80;99.90;;;;;;6174700;23;20396;-93
2021/08/04 01:04:42;;;;;;;0.40;0.40;;;11.80;99.90;;;;;;6263901;22;20369;-91
2021/08/04 01:08:29;;;;;;;0.60;0.50;;;11.80;99.90;;;;;;6258218;22;20378;-91
2021/08/04 01:11:56;;;;;;;1.40;0.80;;;11.80;99.90;;;;;;6165328;23;20406;-92
2021/08/04 01:15:00;;;;;;;0.40;0.40;;;11.80;99.90;;;;;;6113101;23;20383;-90
2021/08/04 01:18:21;;;;;;;0.60;0.50;;;11.80;99.90;;;;;;6166998;23;20394;-92
2021/08/04 01:21:57;;;;;;;0.70;0.70;;;11.80;99.90;;;;;;6130234;23;20375;-92
2021/08/04 01:25:54;;;;;;;0.20;0.20;;;11.80;99.90;;;;;;6101015;23;20402;-92
2021/08/04 01:29:12;;;;;;;1.00;0.47;;;11.80;99.90;;;;;;5984873;23;20392;-91
2021/08/04 01:32:22;;;;;;;0.10;0.10;;;11.80;99.90;;;;;;5999751;23;20400;-92
2021/08/04 01:35:04;;;;;;;0.40;0.40;;;11.80;99.90;;;;;;5993364;23;20441;-95
2021/08/04 01:37:36;;;;;;;0.20;0.20;;;11.80;99.90;;;;;;5995911;23;20725;-91
2021/08/04 01:40:33;;;;;;;0.10;0.10;;;11.80;99.90;;;;;;5994903;24;20401;-92
2021/08/04 01:43:25;;;;;;;0.60;0.45;;;11.80;99.90;;;;;;6017624;23;20390;-92
2021/08/04 01:46:45;;;;;;;0.20;0.20;;;11.80;99.90;;;;;;5993771;23;20412;-92
2021/08/04 01:49:46;;;;;;;0.10;0.10;;;11.70;99.90;;;;;;5869879;24;20393;-92
2021/08/04 01:53:14;;;;;;;0.10;0.10;;;11.80;99.90;;;;;;5884174;24;20419;-92
2021/08/04 01:56:04;;;;;;;0.10;0.10;;;11.80;99.90;;;;;;5916617;24;20444;-92
2021/08/04 01:58:55;;;;;;;0.40;0.20;;;11.80;99.90;;;;;;5939967;24;20385;-91
2021/08/04 02:02:26;;;;;;;0.20;0.20;;;11.80;99.90;;;;;;5933776;24;20961;-92
2021/08/04 02:05:39;;;;;;;0.40;0.40;;;11.90;99.90;;;;;;5936410;24;20445;-91
2021/08/04 02:09:09;;;;;;;0.20;0.20;;;11.90;99.90;;;;;;5936849;24;20401;-91
2021/08/04 02:12:29;;;;;;;0.20;0.20;;;11.90;99.90;;;;;;5883108;24;20416;-91
2021/08/04 02:15:41;;;;;;;0.50;0.30;;;11.90;99.90;;;;;;5881263;24;20449;-92
2021/08/04 02:18:32;;;;;;;0.10;0.10;;;11.90;99.90;;;;;;5883704;24;20392;-91
2021/08/04 02:22:08;;;;;;;4.05;0.55;;;11.90;99.90;;;;;;5843922;24;20427;-92
2021/08/04 02:25:16;;;;;;;0.40;0.40;;;11.90;99.90;;;;;;5885624;24;20448;-91
2021/08/04 02:28:45;;;;;;;4.30;0.70;;;11.90;99.90;;;;;;5960679;24;20407;-91
2021/08/04 02:31:48;;;;;;;0.40;0.40;;;11.90;99.90;;;;;;6052549;23;20406;-91
2021/08/04 02:35:00;;;;;;;0.10;0.10;;;11.90;99.90;;;;;;6033695;23;20441;-91
2021/08/04 02:38:15;;;;;;;0.20;0.20;;;11.90;99.90;;;;;;6004768;23;20387;-91
2021/08/04 02:41:33;;;;;;;0.40;0.40;;;11.80;99.90;;;;;;6023403;23;20409;-91
2021/08/04 02:44:52;;;;;;;0.20;0.20;;;11.90;99.90;;;;;;6032229;23;20462;-91
2021/08/04 02:48:05;;;;;;;0.10;0.10;;;11.90;99.90;;;;;;6035702;23;20785;-91
2021/08/04 02:51:10;;;;;;;0.20;0.20;;;12.00;99.90;;;;;;6027908;23;20390;-96
2021/08/04 02:54:59;;;;;;;0.45;0.45;;;11.90;99.90;;;;;;6098980;23;20442;-91
2021/08/04 02:58:48;;;;;;;0.10;0.10;;;11.90;99.90;;;;;;6108966;23;20384;-92
2021/08/04 03:05:58;;;;;;;0.17;0.17;;;11.90;99.90;;;;;;6024069;23;20426;-91
2021/08/04 03:09:52;;;;;;;0.30;0.30;;;11.90;99.90;;;;;;6004934;23;20391;-91
2021/08/04 03:13:00;;;;;;;0.10;0.10;;;11.90;99.90;;;;;;6022478;23;20383;-92
2021/08/04 03:16:11;;;;;;;0.10;0.10;;;11.90;99.90;;;;;;5997839;23;20483;-91
2021/08/04 03:19:26;;;;;;;0.10;0.10;;;11.90;99.90;;;;;;6030772;23;20394;-91
2021/08/04 03:22:19;;;;;;;0.20;0.20;;;12.00;99.90;;;;;;6080032;23;20400;-91
2021/08/04 03:25:19;;;;;;;0.10;0.10;;;12.00;99.90;;;;;;6076859;23;20400;-91
2021/08/04 03:28:34;;;;;;;0.30;0.30;;;12.00;99.90;;;;;;6055410;23;20490;-91
2021/08/04 03:31:39;;;;;;;0.20;0.20;;;12.00;99.90;;;;;;5990498;23;20405;-94
2021/08/04 03:35:00;;;;;;;0.85;0.55;;;12.00;99.90;;;;;;5991980;23;20727;-91
2021/08/04 03:38:19;;;;;;;0.10;0.10;;;11.90;99.90;;;;;;6012120;23;20385;-90
2021/08/04 03:41:57;;;;;;;0.10;0.10;;;11.90;99.90;;;;;;6037737;23;20405;-91
2021/08/04 03:45:38;;;;;;;0.22;0.22;;;11.90;99.90;;;;;;5989069;24;20376;-91
2021/08/04 03:49:04;;;;;;;0.10;0.10;;;11.90;99.90;;;;;;5989831;23;20445;-91
2021/08/04 03:51:58;;;;;;;0.20;0.20;;;11.90;99.90;;;;;;5973668;23;20375;-91
2021/08/04 03:55:33;;;;;;;0.20;0.20;;;11.90;99.90;;;;;;5994639;23;20404;-91
2021/08/04 03:58:42;;;;;;;0.20;0.20;;;11.90;99.90;;;;;;5924294;23;20416;-91
2021/08/04 04:01:54;;;;;;;0.50;0.50;;;11.90;99.90;;;;;;5917249;23;20456;-91
2021/08/04 04:05:24;;;;;;;0.10;0.10;;;11.90;99.90;;;;;;5991448;23;20409;-96
2021/08/04 04:08:30;;;;;;;0.10;0.10;;;11.90;99.90;;;;;;6004468;23;20499;-92
2021/08/04 04:11:50;;;;;;;0.10;0.10;;;11.90;99.90;;;;;;6045694;23;20394;-91
2021/08/04 04:14:53;;;;;;;0.20;0.20;;;12.00;99.90;;;;;;6016391;23;20415;-91
2021/08/04 04:18:20;;;;;;;0.20;0.20;;;11.90;99.90;;;;;;6015668;23;20376;-92
2021/08/04 04:22:09;;;;;;;0.20;0.20;;;12.00;99.90;;;;;;6031660;23;20365;-91
2021/08/04 04:24:57;;;;;;;0.20;0.20;;;12.00;99.90;;;;;;6046927;23;20393;-93
2021/08/04 04:27:59;;;;;;;0.10;0.10;;;12.00;99.90;;;;;;6019904;23;20402;-91
2021/08/04 04:31:16;;;;;;;0.10;0.10;;;12.00;99.90;;;;;;6049132;23;20449;-91
2021/08/04 04:34:43;;;;;;;0.60;0.20;;;12.00;99.90;;;;;;6048904;23;20455;-93
2021/08/04 04:37:48;;;;;;;0.30;0.30;;;12.00;99.90;;;;;;6050045;23;20528;-92
2021/08/04 04:40:59;;;;;;;0.40;0.22;;;12.10;99.90;;;;;;6051381;23;20425;-91
2021/08/04 04:44:17;;;;;;;0.20;0.20;;;12.00;99.90;;;;;;6008632;23;20382;-91
2021/08/04 04:47:33;;;;;;;0.20;0.20;;;12.10;99.90;;;;;;6160862;23;20414;-92
2021/08/04 04:50:32;;;;;;;0.10;0.10;;;12.10;99.90;;;;;;6146287;23;20453;-91
2021/08/04 04:53:43;;;;;;;0.50;0.40;;;12.10;99.90;;;;;;6102016;23;20407;-90
2021/08/04 04:56:52;;;;;;;3.40;0.30;;;12.20;99.90;;;;;;6255339;22;20464;-91
2021/08/04 04:59:56;;;;;;;0.50;0.50;;;12.20;99.90;;;;;;6208264;23;20886;-91
2021/08/04 05:03:14;;;;;;;2.28;0.50;;;12.20;99.90;;;;;;6215181;22;20365;-94
2021/08/04 05:06:22;;;;;;;0.10;0.10;;;12.20;99.90;;;;;;6226831;23;20446;-96
2021/08/04 05:09:12;;;;;;;0.38;0.38;;;12.10;99.90;;;;;;6171446;23;20427;-91
2021/08/04 05:12:22;;;;;;;3.90;1.40;;;12.20;99.90;;;;;;6220468;23;20399;-91
2021/08/04 05:15:17;;;;;;;0.20;0.20;;;12.20;99.90;;;;;;6199115;23;20383;-92
2021/08/04 05:18:16;;;;;;;0.20;0.20;;;12.20;99.90;;;;;;6223939;23;20394;-91
2021/08/04 05:21:11;;;;;;;0.50;0.50;;;12.20;99.90;;;;;;6202503;23;20415;-91
2021/08/04 05:24:30;;;;;;;0.50;0.50;;;12.20;99.90;;;;;;6222098;23;20883;-91
2021/08/04 05:27:42;;;;;;;0.20;0.20;;;12.20;99.90;;;;;;6219748;23;20368;-92
2021/08/04 05:30:14;;;;;;;0.80;0.80;;;12.20;99.90;;;;;;6198979;23;20367;-96
2021/08/04 05:33:03;;;;;;;0.20;0.20;;;12.20;99.90;;;;;;6201394;23;20411;-92
2021/08/04 05:35:48;;;;;;;0.97;0.87;;;12.20;99.90;;;;;;6221692;23;20403;-94
2021/08/04 05:38:17;;;;;;;0.45;0.45;;;12.20;99.90;;;;;;6193647;23;20475;-96
2021/08/04 05:40:54;;;;;;;0.70;0.40;;;12.30;99.90;;;;;;6198638;23;20394;-96
2021/08/04 05:43:34;;;;;;;0.20;0.20;;;12.30;99.90;;;;;;6158042;23;20398;-96
2021/08/04 05:46:04;;;;;;;0.30;0.30;;;12.30;99.90;;;;;;6192402;23;20416;-91
2021/08/04 05:48:31;;;;;;;0.55;0.30;;;12.30;99.90;;;;;;6199448;23;20382;-91
2021/08/04 05:51:12;;;;;;;0.90;0.50;;;12.30;99.90;;;;;;6226971;23;20385;-91
2021/08/04 05:54:20;;;;;;;1.10;0.80;;;12.30;99.90;;;;;;6250487;23;20402;-96
2021/08/04 05:57:00;;;;;;;0.28;0.28;;;12.30;99.90;;;;;;6188018;23;20386;-91
2021/08/04 05:59:43;;;;;;;0.50;0.50;;;12.30;99.90;;;;;;6236538;23;20381;-92
2021/08/04 06:02:16;;;;;;;0.13;0.13;;;12.30;99.90;;;;;;6234585;23;20370;-93
2021/08/04 06:04:47;;;;;;;0.30;0.30;;;12.30;99.90;;;;;;6233366;23;20389;-96
2021/08/04 06:07:20;;;;;;;0.65;0.65;;;12.30;99.90;;;;;;6231687;23;20386;-91
2021/08/04 06:09:53;;;;;;;0.20;0.20;;;12.30;99.90;;;;;;6227981;23;20370;-96
2021/08/04 06:12:39;;;;;;;0.25;0.25;;;12.30;99.90;;;;;;6206954;23;20373;-96
2021/08/04 06:15:16;;;;;;;0.70;0.50;;;12.30;99.90;;;;;;6231893;23;20412;-92
2021/08/04 06:18:08;;;;;;;0.40;0.40;;;12.30;99.90;;;;;;6201309;23;20412;-92
2021/08/04 06:20:35;;;;;;;0.32;0.32;;;12.30;99.90;;;;;;6227671;23;20711;-95
2021/08/04 06:23:03;;;;;;;0.28;0.28;;;12.30;99.90;;;;;;6228215;23;20388;-96
2021/08/04 06:25:42;;;;;;;0.52;0.32;;;12.30;99.90;;;;;;6226104;23;20370;-96
2021/08/04 06:28:30;;;;;;;0.40;0.40;;;12.30;99.90;;;;;;6239682;22;20369;-94
2021/08/04 06:31:23;;;;;;;0.40;0.40;;;12.30;99.90;;;;;;6226117;22;20461;-96
2021/08/04 06:33:50;;;;;;;0.50;0.50;;;12.30;99.90;;;;;;6228740;23;20465;-96
2021/08/04 06:36:25;;;;;;;0.30;0.30;;;12.30;99.90;;;;;;6201890;23;20388;-94
2021/08/04 06:40:06;;;;;;;0.30;0.30;;;12.30;99.90;;;;;;6224493;22;20408;-92
2021/08/04 06:46:42;;;;;;;0.10;0.10;;;12.30;99.90;;;;;;6062108;23;20384;-92
2021/08/04 06:49:32;;;;;;;0.43;0.43;;;12.30;99.90;;;;;;6073934;23;20842;-96
2021/08/04 06:52:15;;;;;;;0.10;0.10;;;12.40;99.90;;;;;;6047988;23;20921;-96
2021/08/04 06:54:42;;;;;;;1.13;0.70;;;12.50;99.90;;;;;;6044111;23;20408;-96
2021/08/04 06:57:09;;;;;;;0.20;0.20;;;12.50;99.90;;;;;;6044825;23;20393;-96
2021/08/04 06:59:37;;;;;;;1.90;0.70;;;12.50;99.90;;;;;;6047414;23;20407;-95
2021/08/04 07:02:17;;;;;;;0.52;0.52;;;12.50;99.90;;;;;;6047143;23;20468;-96
2021/08/04 07:04:51;;;;;;;0.70;0.50;;;12.60;99.90;;;;;;6045332;23;20399;-95
2021/08/04 07:07:47;;;;;;;0.20;0.20;;;12.60;99.90;;;;;;6067630;23;20400;-95
2021/08/04 07:10:28;;;;;;;0.50;0.40;;;12.70;99.90;;;;;;6091959;23;20391;-96
2021/08/04 07:13:15;;;;;;;0.43;0.43;;;12.70;99.90;;;;;;6134116;23;20430;-96
2021/08/04 07:15:56;;;;;;;0.88;0.60;;;12.80;99.90;;;;;;6169048;23;20430;-96
2021/08/04 07:18:46;;;;;;;0.50;0.40;;;12.90;99.90;;;;;;6182173;23;20461;-96
2021/08/04 08:33:25;;;;;;;0.20;0.20;;;13.90;99.90;;;;;;6135127;22;2299716;-96
2021/08/04 08:36:41;;;;;;;0.20;0.20;;;13.70;99.90;;;;;;6232880;23;20370;-96
2021/08/04 08:39:27;;;;;;;0.30;0.30;;;13.70;99.90;;;;;;6232659;23;20397;-96
2021/08/04 08:41:54;;;;;;;0.20;0.20;;;13.70;99.90;;;;;;6227219;23;20397;-96
2021/08/04 08:44:46;;;;;;;0.23;0.23;;;13.70;99.90;;;;;;6224402;23;20393;-95
2021/08/04 08:47:30;;;;;;;0.35;0.35;;;13.90;99.90;;;;;;6105805;23;20432;-95
2021/08/04 08:50:26;;;;;;;0.30;0.30;;;14.10;99.90;;;;;;6102155;23;20393;-95
2021/08/04 08:52:56;;;;;;;0.20;0.20;;;14.30;99.90;;;;;;6126902;23;20432;-96
2021/08/04 08:55:24;;;;;;;0.10;0.10;;;14.90;99.90;;;;;;6105275;23;20503;-96
2021/08/04 08:58:14;;;;;;;0.40;0.40;;;15.20;99.90;;;;;;6102050;23;20395;-95
2021/08/04 09:01:07;;;;;;;0.10;0.10;;;15.20;99.90;;;;;;6109172;23;20400;-95
2021/08/04 09:03:50;;;;;;;0.10;0.10;;;15.00;99.90;;;;;;6077998;23;20422;-96
2021/08/04 09:07:19;;;;;;;0.50;0.50;;;14.80;99.90;;;;;;6077357;23;20459;-96
2021/08/04 09:58:53;;;;;;;0.30;0.30;;;16.30;99.90;;;;;;6204355;22;20487;-96
2021/08/04 21:09:53;;;;;;;0.20;0.20;;;12.60;99.90;;;;;;6186414;22;21057;-96
